Time;durP1;ratioP1;P1;durP2;ratioP2;P2;SDS_P1;SDS_P2;PMS_P1;PMS_P2;Temp;Humidity;BMP_temperature;BMP_pressure;BME280_temperature;BME280_humidity;BME280_pressure;Samples;Min_cycle;Max_cycle;Signal;HPM_P1;HPM_P2
2023/02/17 00:00:53;;;;;;;21.33;15.02;;;11.90;99.90;;;;;;6150902;23;20027;-74
2023/02/17 00:03:19;;;;;;;19.42;14.75;;;11.90;99.90;;;;;;6124380;23;20489;-74
2023/02/17 00:05:45;;;;;;;22.58;15.15;;;12.00;99.90;;;;;;6124046;23;20039;-74
2023/02/17 00:08:10;;;;;;;22.52;14.57;;;12.00;99.90;;;;;;6148287;23;20006;-74
2023/02/17 00:10:36;;;;;;;20.88;15.88;;;12.00;99.90;;;;;;6124988;23;20009;-74
2023/02/17 00:13:02;;;;;;;20.50;13.82;;;12.10;99.90;;;;;;6150539;23;20002;-74
2023/02/17 00:15:27;;;;;;;17.83;13.95;;;12.00;99.90;;;;;;6122401;23;20096;-74
2023/02/17 00:17:53;;;;;;;18.08;12.15;;;12.00;99.90;;;;;;6148603;23;20455;-74
2023/02/17 00:20:19;;;;;;;16.52;12.00;;;12.00;99.90;;;;;;6148631;23;20025;-74
2023/02/17 00:22:44;;;;;;;16.45;11.35;;;11.90;99.90;;;;;;6147715;23;20488;-74
2023/02/17 00:25:10;;;;;;;14.63;11.18;;;12.00;99.90;;;;;;6146447;23;20005;-74
2023/02/17 00:27:35;;;;;;;16.98;12.15;;;12.00;99.90;;;;;;6149747;23;20053;-74
2023/02/17 00:30:01;;;;;;;14.85;11.45;;;12.00;99.90;;;;;;6148494;23;20002;-75
2023/02/17 00:32:27;;;;;;;14.75;10.85;;;12.00;99.90;;;;;;6152858;23;20010;-74
2023/02/17 00:34:55;;;;;;;15.88;11.48;;;12.00;99.90;;;;;;6149343;23;20006;-74
2023/02/17 00:37:20;;;;;;;17.05;12.00;;;12.00;99.90;;;;;;6150751;23;20061;-74
2023/02/17 00:39:46;;;;;;;12.95;9.68;;;12.00;99.90;;;;;;6149851;23;20054;-74
2023/02/17 00:42:12;;;;;;;15.20;11.23;;;12.10;99.90;;;;;;6152749;23;20001;-74
2023/02/17 00:44:37;;;;;;;14.55;11.43;;;12.10;99.90;;;;;;6123510;23;20009;-74
2023/02/17 00:47:03;;;;;;;12.98;10.00;;;12.10;99.90;;;;;;6150957;23;20333;-74
2023/02/17 00:49:28;;;;;;;13.95;11.27;;;12.00;99.90;;;;;;6151824;23;20001;-74
2023/02/17 00:51:54;;;;;;;14.43;10.98;;;12.00;99.90;;;;;;6150429;23;20017;-74
2023/02/17 00:54:20;;;;;;;13.65;10.95;;;12.10;99.90;;;;;;6151281;23;20040;-74
2023/02/17 00:56:45;;;;;;;11.88;10.15;;;12.10;99.90;;;;;;6152056;23;20056;-74
2023/02/17 00:59:11;;;;;;;10.23;9.23;;;12.10;99.90;;;;;;6150811;23;20077;-74
2023/02/17 01:01:38;;;;;;;11.02;8.90;;;12.20;99.90;;;;;;6151642;23;20017;-74
2023/02/17 01:04:04;;;;;;;10.38;9.38;;;12.20;99.90;;;;;;6125021;23;20497;-74
2023/02/17 01:06:33;;;;;;;10.43;7.18;;;12.10;99.90;;;;;;6149873;23;20295;-75
2023/02/17 01:08:59;;;;;;;8.68;7.78;;;12.10;99.90;;;;;;6151724;23;20009;-74
2023/02/17 01:11:28;;;;;;;9.73;7.78;;;12.10;99.90;;;;;;6151935;23;20001;-74
2023/02/17 01:13:55;;;;;;;9.65;7.00;;;12.20;99.90;;;;;;6150237;23;20052;-74
2023/02/17 01:16:25;;;;;;;7.20;6.43;;;12.20;99.90;;;;;;6152084;23;20382;-77
2023/02/17 01:18:51;;;;;;;6.82;6.22;;;12.10;99.90;;;;;;6150746;23;20025;-76
2023/02/17 01:21:22;;;;;;;7.07;6.38;;;12.00;99.90;;;;;;6149419;23;20006;-76
2023/02/17 01:23:49;;;;;;;7.07;6.30;;;11.90;99.90;;;;;;6151782;23;20012;-76
2023/02/17 01:26:17;;;;;;;6.28;5.63;;;12.00;99.90;;;;;;6124099;23;20083;-76
2023/02/17 01:28:43;;;;;;;6.40;5.80;;;12.10;99.90;;;;;;6151451;23;20485;-76
2023/02/17 01:31:10;;;;;;;8.02;6.55;;;12.10;99.90;;;;;;6150519;23;20586;-75
2023/02/17 01:33:37;;;;;;;6.75;5.85;;;12.10;99.90;;;;;;6151422;23;20426;-75
2023/02/17 01:36:08;;;;;;;7.10;5.70;;;12.20;99.90;;;;;;6150887;23;20103;-74
2023/02/17 01:38:35;;;;;;;7.85;5.68;;;12.20;99.90;;;;;;6150214;23;20060;-75
2023/02/17 01:41:01;;;;;;;7.43;6.57;;;12.20;99.90;;;;;;6152296;23;20005;-75
2023/02/17 01:43:27;;;;;;;7.65;6.70;;;12.20;99.90;;;;;;6149780;23;20461;-75
2023/02/17 01:45:54;;;;;;;8.10;6.82;;;12.30;99.90;;;;;;6152940;23;20021;-75
2023/02/17 01:48:37;;;;;;;8.48;7.68;;;12.30;99.90;;;;;;6155463;23;20009;-75
2023/02/17 01:51:23;;;;;;;10.65;8.60;;;12.20;99.90;;;;;;6154103;23;20052;-75
2023/02/17 01:53:55;;;;;;;9.85;8.85;;;12.20;99.90;;;;;;6154833;23;20014;-75
2023/02/17 01:56:21;;;;;;;9.63;8.63;;;12.30;99.90;;;;;;6154308;23;20005;-75
2023/02/17 01:58:54;;;;;;;11.73;9.18;;;12.20;99.90;;;;;;6128401;23;20005;-75
2023/02/17 02:01:20;;;;;;;12.27;9.40;;;12.20;99.90;;;;;;6150508;23;20001;-75
2023/02/17 02:03:46;;;;;;;11.35;8.82;;;12.20;99.90;;;;;;6152701;23;20013;-75
2023/02/17 02:06:19;;;;;;;12.73;9.60;;;12.20;99.90;;;;;;6152035;23;20330;-75
2023/02/17 02:09:15;;;;;;;13.40;10.07;;;12.30;99.90;;;;;;6154602;23;20076;-75
2023/02/17 02:11:41;;;;;;;10.38;9.13;;;12.30;99.90;;;;;;6151812;23;20008;-75
2023/02/17 02:14:07;;;;;;;10.23;8.50;;;12.30;99.90;;;;;;6154391;23;20084;-75
2023/02/17 02:16:39;;;;;;;9.98;8.77;;;12.20;99.90;;;;;;6151577;23;20028;-75
2023/02/17 02:19:22;;;;;;;11.10;9.60;;;12.20;99.90;;;;;;6154473;23;20441;-75
2023/02/17 02:22:26;;;;;;;9.85;8.85;;;12.20;99.90;;;;;;6126105;23;20049;-75
2023/02/17 02:25:06;;;;;;;10.55;9.45;;;12.20;99.90;;;;;;6154787;23;20304;-75
2023/02/17 02:27:57;;;;;;;9.30;8.40;;;12.20;99.90;;;;;;6128221;23;20005;-75
2023/02/17 02:30:38;;;;;;;10.45;9.10;;;12.10;99.90;;;;;;6152314;23;20077;-75
2023/02/17 02:33:17;;;;;;;12.20;8.88;;;12.20;99.90;;;;;;6152435;23;20005;-75
2023/02/17 02:35:56;;;;;;;9.93;8.73;;;12.20;99.90;;;;;;6152268;23;20088;-76
2023/02/17 02:38:43;;;;;;;10.32;9.23;;;12.10;99.90;;;;;;6154434;23;20416;-75
2023/02/17 02:41:13;;;;;;;9.70;8.52;;;12.10;99.90;;;;;;6153782;23;19998;-75
2023/02/17 02:43:40;;;;;;;9.68;8.68;;;12.10;99.90;;;;;;6154206;23;20052;-75
2023/02/17 02:46:06;;;;;;;13.50;8.10;;;12.10;99.90;;;;;;6151946;23;20017;-75
2023/02/17 02:48:31;;;;;;;8.07;7.28;;;12.10;99.90;;;;;;6153878;23;20002;-75
2023/02/17 02:51:09;;;;;;;7.28;6.55;;;12.10;99.90;;;;;;6153974;23;19998;-76
2023/02/17 02:53:41;;;;;;;6.10;5.32;;;11.90;99.90;;;;;;6150131;23;20013;-75
2023/02/17 02:56:53;;;;;;;5.90;5.28;;;11.90;99.90;;;;;;6151855;23;20052;-75
2023/02/17 02:59:33;;;;;;;7.20;5.00;;;11.90;99.90;;;;;;6154646;23;20009;-75
2023/02/17 03:02:26;;;;;;;8.02;5.60;;;11.90;99.90;;;;;;6126951;23;20008;-76
2023/02/17 03:05:15;;;;;;;6.55;5.15;;;11.90;99.90;;;;;;6151741;23;20117;-76
2023/02/17 03:07:57;;;;;;;7.38;5.45;;;12.00;99.90;;;;;;6153930;23;20006;-76
2023/02/17 03:10:23;;;;;;;7.38;6.60;;;12.00;99.90;;;;;;6126716;23;20441;-76
2023/02/17 03:12:49;;;;;;;7.65;6.78;;;12.00;99.90;;;;;;6153959;23;20009;-76
2023/02/17 03:15:33;;;;;;;7.63;6.65;;;12.00;99.90;;;;;;6151670;23;20005;-76
2023/02/17 03:18:01;;;;;;;10.38;6.78;;;12.00;99.90;;;;;;6153103;23;20496;-75
2023/02/17 03:20:30;;;;;;;9.23;7.22;;;12.00;99.90;;;;;;6153578;23;20052;-76
2023/02/17 03:22:55;;;;;;;7.20;6.30;;;12.00;99.90;;;;;;6152028;23;20012;-76
2023/02/17 03:25:21;;;;;;;8.18;6.20;;;12.00;99.90;;;;;;6152499;23;20001;-76
2023/02/17 03:27:47;;;;;;;5.90;5.30;;;12.00;99.90;;;;;;6153542;23;20001;-76
2023/02/17 03:30:13;;;;;;;8.68;5.93;;;12.00;99.90;;;;;;6152333;23;19998;-76
2023/02/17 03:32:39;;;;;;;6.78;5.47;;;12.00;99.90;;;;;;6126338;23;20048;-76
2023/02/17 03:35:05;;;;;;;9.68;5.65;;;12.00;99.90;;;;;;6151962;23;20025;-76
2023/02/17 03:37:31;;;;;;;7.15;5.35;;;12.00;99.90;;;;;;6153020;23;20427;-76
2023/02/17 03:39:57;;;;;;;7.00;6.30;;;12.00;99.90;;;;;;6150666;23;20001;-76
2023/02/17 03:42:22;;;;;;;6.90;6.13;;;11.90;99.90;;;;;;6153412;23;20084;-76
2023/02/17 03:44:48;;;;;;;6.43;5.20;;;11.90;99.90;;;;;;6151579;23;20033;-76
2023/02/17 03:47:13;;;;;;;5.25;4.75;;;11.90;99.90;;;;;;6152998;23;20060;-76
2023/02/17 03:49:39;;;;;;;7.03;4.80;;;11.80;99.90;;;;;;6153261;23;20482;-76
2023/02/17 03:52:04;;;;;;;5.80;4.03;;;11.80;99.90;;;;;;6151063;23;20006;-76
2023/02/17 03:54:30;;;;;;;5.35;4.05;;;11.70;99.90;;;;;;6151270;23;20105;-76
2023/02/17 03:56:57;;;;;;;4.53;4.05;;;11.80;99.90;;;;;;6152689;23;20340;-76
2023/02/17 03:59:23;;;;;;;5.45;4.95;;;11.80;99.90;;;;;;6152035;23;20072;-76
2023/02/17 04:01:49;;;;;;;6.85;5.03;;;11.80;99.90;;;;;;6151141;23;20040;-76
2023/02/17 04:04:14;;;;;;;4.28;3.88;;;11.70;99.90;;;;;;6153299;23;20001;-76
2023/02/17 04:06:40;;;;;;;7.35;4.75;;;11.90;99.90;;;;;;6130153;23;20005;-76
2023/02/17 04:09:05;;;;;;;6.10;4.90;;;11.80;99.90;;;;;;6154081;23;20008;-76
2023/02/17 04:11:31;;;;;;;6.50;4.97;;;11.80;99.90;;;;;;6152331;23;20006;-75
2023/02/17 04:13:57;;;;;;;8.05;5.78;;;11.70;99.90;;;;;;6127372;23;20004;-76
2023/02/17 04:16:22;;;;;;;6.93;5.53;;;11.70;99.90;;;;;;6152931;23;20021;-76
2023/02/17 04:18:48;;;;;;;8.18;6.70;;;11.80;99.90;;;;;;6153868;23;20147;-76
2023/02/17 04:21:13;;;;;;;8.43;6.85;;;11.80;99.90;;;;;;6153818;23;20106;-76
2023/02/17 04:23:39;;;;;;;10.43;8.02;;;11.80;99.90;;;;;;6153978;23;20080;-76
2023/02/17 04:26:06;;;;;;;14.43;8.43;;;11.90;99.90;;;;;;6154815;23;19997;-76
2023/02/17 04:28:33;;;;;;;12.40;8.55;;;11.90;99.90;;;;;;6154872;23;20418;-76
2023/02/17 04:30:59;;;;;;;13.05;8.82;;;11.90;99.90;;;;;;6153947;23;20321;-76
2023/02/17 04:33:25;;;;;;;14.60;9.15;;;11.90;99.90;;;;;;6155749;23;20104;-75
2023/02/17 04:35:50;;;;;;;15.85;8.85;;;11.90;99.90;;;;;;6153026;23;20047;-76
2023/02/17 04:38:16;;;;;;;12.23;8.63;;;11.90;99.90;;;;;;6127232;23;20474;-76
2023/02/17 04:40:42;;;;;;;16.45;9.40;;;11.90;99.90;;;;;;6155407;23;20437;-76
2023/02/17 04:43:07;;;;;;;13.43;9.20;;;11.80;99.90;;;;;;6153018;23;20085;-76
2023/02/17 04:45:35;;;;;;;15.63;10.57;;;11.80;99.90;;;;;;6153268;23;20382;-75
2023/02/17 04:48:00;;;;;;;15.82;8.90;;;11.80;99.90;;;;;;6153821;23;20037;-75
2023/02/17 04:50:26;;;;;;;16.13;9.20;;;11.80;99.90;;;;;;6154076;23;20441;-75
2023/02/17 04:52:52;;;;;;;13.75;8.55;;;11.80;99.90;;;;;;6128780;23;20001;-76
2023/02/17 04:55:17;;;;;;;16.00;9.38;;;11.80;99.90;;;;;;6156175;23;20010;-75
2023/02/17 04:57:43;;;;;;;13.70;8.60;;;11.80;99.90;;;;;;6154052;23;20014;-75
2023/02/17 05:00:09;;;;;;;13.75;7.88;;;11.80;99.90;;;;;;6153875;23;20006;-76
2023/02/17 05:02:35;;;;;;;12.65;9.23;;;11.80;99.90;;;;;;6155066;23;20009;-76
2023/02/17 05:05:01;;;;;;;13.23;8.32;;;11.80;99.90;;;;;;6154091;23;20007;-76
2023/02/17 05:07:26;;;;;;;15.02;8.98;;;11.80;99.90;;;;;;6155585;23;20013;-76
2023/02/17 05:09:53;;;;;;;14.68;8.38;;;11.80;99.90;;;;;;6154155;23;20370;-76
2023/02/17 05:12:18;;;;;;;10.82;7.47;;;11.80;99.90;;;;;;6154428;23;20392;-76
2023/02/17 05:14:44;;;;;;;13.30;8.93;;;11.90;99.90;;;;;;6153709;23;20084;-75
2023/02/17 05:17:10;;;;;;;13.13;8.90;;;11.90;99.90;;;;;;6154068;23;20017;-76
2023/02/17 05:19:35;;;;;;;12.70;8.73;;;11.90;99.90;;;;;;6154055;23;20023;-76
2023/02/17 05:22:01;;;;;;;13.90;8.73;;;11.90;99.90;;;;;;6152517;23;20012;-77
2023/02/17 05:24:27;;;;;;;13.25;8.57;;;11.80;99.90;;;;;;6153964;23;20012;-76
2023/02/17 05:26:52;;;;;;;12.73;8.73;;;11.90;99.90;;;;;;6155188;23;20004;-76
2023/02/17 05:29:18;;;;;;;14.98;9.18;;;11.90;99.90;;;;;;6152469;23;20009;-76
2023/02/17 05:31:44;;;;;;;15.35;8.32;;;11.90;99.90;;;;;;6155755;23;20005;-76
2023/02/17 05:34:09;;;;;;;11.18;8.00;;;11.90;99.90;;;;;;6154038;23;20013;-76
2023/02/17 05:36:35;;;;;;;14.52;8.68;;;11.80;99.90;;;;;;6154687;23;20017;-76
2023/02/17 05:39:01;;;;;;;14.70;8.52;;;11.80;99.90;;;;;;6154640;23;20466;-75
2023/02/17 05:41:27;;;;;;;14.65;8.18;;;11.80;99.90;;;;;;6154155;23;20021;-76
2023/02/17 05:43:53;;;;;;;11.57;7.60;;;11.90;99.90;;;;;;6127499;23;20029;-76
2023/02/17 05:46:18;;;;;;;15.15;8.73;;;11.90;99.90;;;;;;6153065;23;20020;-76
2023/02/17 05:48:44;;;;;;;14.68;8.60;;;11.90;99.90;;;;;;6155167;23;19998;-75
2023/02/17 05:51:12;;;;;;;14.98;8.93;;;11.80;99.90;;;;;;6152475;23;20059;-76
2023/02/17 05:53:38;;;;;;;13.63;8.02;;;11.80;99.90;;;;;;6154127;23;20002;-75
2023/02/17 05:56:04;;;;;;;11.93;8.30;;;11.90;99.90;;;;;;6154972;23;20008;-76
2023/02/17 05:58:30;;;;;;;12.90;7.82;;;11.80;99.90;;;;;;6153637;23;20005;-75
2023/02/17 06:00:55;;;;;;;18.30;8.77;;;11.80;99.90;;;;;;6153641;23;20001;-75
2023/02/17 06:03:21;;;;;;;13.80;8.48;;;11.80;99.90;;;;;;6128664;23;20009;-76
2023/02/17 06:05:47;;;;;;;12.40;8.10;;;11.70;99.90;;;;;;6153970;23;20001;-75
2023/02/17 06:08:12;;;;;;;10.23;7.78;;;11.80;99.90;;;;;;6151994;23;20001;-75
2023/02/17 06:10:39;;;;;;;14.00;8.50;;;11.80;99.90;;;;;;6154354;23;20067;-74
2023/02/17 06:13:05;;;;;;;13.60;7.72;;;11.80;99.90;;;;;;6154262;23;20438;-75
2023/02/17 06:15:31;;;;;;;13.25;7.55;;;11.80;99.90;;;;;;6153932;23;20010;-75
2023/02/17 06:17:56;;;;;;;14.25;7.97;;;11.90;99.90;;;;;;6153627;23;20367;-75
2023/02/17 06:20:22;;;;;;;13.18;8.20;;;11.80;99.90;;;;;;6153650;23;20028;-75
2023/02/17 06:22:47;;;;;;;12.20;7.65;;;11.90;99.90;;;;;;6152601;23;20036;-75
2023/02/17 06:25:13;;;;;;;11.20;7.70;;;11.90;99.90;;;;;;6154628;23;20330;-75
2023/02/17 06:27:40;;;;;;;12.07;8.43;;;11.90;99.90;;;;;;6155482;23;20102;-75
2023/02/17 06:30:07;;;;;;;10.75;8.38;;;11.80;99.90;;;;;;6151792;23;20006;-75
2023/02/17 06:32:33;;;;;;;12.57;7.80;;;11.90;99.90;;;;;;6153422;23;19998;-75
2023/02/17 06:34:59;;;;;;;15.60;7.93;;;11.90;99.90;;;;;;6153702;23;20330;-75
2023/02/17 06:37:24;;;;;;;13.02;7.35;;;11.90;99.90;;;;;;6152988;23;20013;-75
2023/02/17 06:39:50;;;;;;;12.93;8.65;;;11.90;99.90;;;;;;6153973;23;20009;-75
2023/02/17 06:42:15;;;;;;;12.93;9.15;;;11.80;99.90;;;;;;6152198;23;20012;-75
2023/02/17 06:44:41;;;;;;;11.68;8.75;;;11.80;99.90;;;;;;6125735;23;20009;-75
2023/02/17 06:47:07;;;;;;;15.07;8.57;;;11.80;99.90;;;;;;6153054;23;20005;-76
2023/02/17 06:49:32;;;;;;;11.13;7.53;;;11.80;99.90;;;;;;6154291;23;20025;-75
2023/02/17 06:51:58;;;;;;;13.00;7.82;;;11.90;99.90;;;;;;6152885;23;20014;-76
2023/02/17 06:54:23;;;;;;;11.68;7.07;;;11.90;99.90;;;;;;6152952;23;19997;-76
2023/02/17 06:56:49;;;;;;;11.75;8.18;;;11.80;99.90;;;;;;6151976;23;20029;-76
2023/02/17 06:59:14;;;;;;;14.48;8.07;;;11.90;99.90;;;;;;6154210;23;20087;-76
2023/02/17 07:01:40;;;;;;;14.32;7.90;;;11.90;99.90;;;;;;6154639;23;20004;-76
2023/02/17 07:04:05;;;;;;;12.77;7.90;;;11.90;99.90;;;;;;6152705;23;20121;-76
2023/02/17 07:06:31;;;;;;;12.30;7.70;;;11.80;99.90;;;;;;6152661;23;20378;-76
2023/02/17 07:08:57;;;;;;;9.27;6.72;;;11.80;99.90;;;;;;6152686;23;20089;-76
2023/02/17 07:11:22;;;;;;;15.07;8.07;;;11.90;99.90;;;;;;6154002;23;20366;-76
2023/02/17 07:13:48;;;;;;;10.20;7.70;;;11.90;99.90;;;;;;6127270;23;20006;-76
2023/02/17 07:16:14;;;;;;;11.77;7.75;;;11.90;99.90;;;;;;6154726;23;20018;-76
2023/02/17 07:18:40;;;;;;;10.68;7.72;;;11.90;99.90;;;;;;6149313;23;20358;-76
2023/02/17 07:21:07;;;;;;;11.40;7.10;;;12.00;99.90;;;;;;6128046;23;19998;-74
2023/02/17 07:23:33;;;;;;;13.30;8.10;;;12.00;99.90;;;;;;6153072;23;20319;-74
2023/02/17 07:26:03;;;;;;;12.32;8.10;;;12.00;99.90;;;;;;6154927;23;19997;-73
2023/02/17 07:28:29;;;;;;;11.02;8.10;;;11.90;99.90;;;;;;6153851;23;20013;-74
2023/02/17 07:30:55;;;;;;;12.20;7.85;;;12.00;99.90;;;;;;6153451;23;20105;-73
2023/02/17 07:33:20;;;;;;;11.85;7.13;;;11.90;99.90;;;;;;6127749;23;20057;-74
2023/02/17 07:35:47;;;;;;;9.95;7.05;;;11.90;99.90;;;;;;6150087;23;20080;-73
2023/02/17 07:38:12;;;;;;;11.68;7.65;;;12.00;99.90;;;;;;6153622;23;20041;-74
2023/02/17 07:40:38;;;;;;;12.90;8.48;;;12.00;99.90;;;;;;6152887;23;20006;-74
2023/02/17 07:43:04;;;;;;;11.88;7.47;;;12.00;99.90;;;;;;6154812;23;20006;-73
2023/02/17 07:45:30;;;;;;;12.05;7.50;;;12.10;99.90;;;;;;6154142;23;20010;-74
2023/02/17 07:47:55;;;;;;;9.85;6.40;;;12.00;99.90;;;;;;6153261;23;20144;-73
2023/02/17 07:50:21;;;;;;;10.02;7.88;;;12.10;99.90;;;;;;6152905;23;20500;-73
2023/02/17 07:52:47;;;;;;;9.52;7.10;;;12.10;99.90;;;;;;6152690;23;20079;-73
2023/02/17 07:55:12;;;;;;;10.20;6.88;;;12.10;99.90;;;;;;6153209;23;20012;-73
2023/02/17 07:57:38;;;;;;;10.35;7.20;;;12.20;99.90;;;;;;6126731;23;20013;-74
2023/02/17 08:00:05;;;;;;;10.63;7.25;;;12.20;99.90;;;;;;6151488;23;20033;-74
2023/02/17 08:02:30;;;;;;;9.73;6.70;;;12.20;99.90;;;;;;6153460;23;20064;-75
2023/02/17 08:04:56;;;;;;;10.18;7.00;;;12.20;99.90;;;;;;6152399;23;20296;-75
2023/02/17 08:07:22;;;;;;;10.63;6.70;;;12.20;99.90;;;;;;6153224;23;20001;-75
2023/02/17 08:13:18;;;;;;;9.90;6.88;;;12.30;99.90;;;;;;6154205;23;20076;-74
2023/02/17 08:15:35;;;;;;;13.98;7.13;;;12.30;99.90;;;;;;6150108;23;20423;-74
2023/02/17 08:18:03;;;;;;;9.80;6.55;;;12.40;99.90;;;;;;6126360;23;20021;-73
2023/02/17 08:20:29;;;;;;;11.52;7.10;;;12.30;99.90;;;;;;6154396;23;20002;-73
2023/02/17 08:22:54;;;;;;;11.07;7.35;;;12.30;99.90;;;;;;6152875;23;20407;-73
2023/02/17 08:25:20;;;;;;;11.40;6.97;;;12.30;99.90;;;;;;6150933;23;20029;-73
2023/02/17 08:27:46;;;;;;;12.02;6.97;;;12.30;99.90;;;;;;6154460;23;20002;-73
2023/02/17 08:30:12;;;;;;;10.23;7.13;;;12.30;99.90;;;;;;6126746;23;20125;-73
2023/02/17 08:32:37;;;;;;;9.95;6.72;;;12.40;99.90;;;;;;6151223;23;20029;-73
2023/02/17 08:35:04;;;;;;;10.00;6.57;;;12.30;99.90;;;;;;6152722;23;20434;-75
2023/02/17 08:37:31;;;;;;;9.35;6.20;;;12.30;99.90;;;;;;6124493;23;20020;-71
2023/02/17 08:39:57;;;;;;;8.80;6.97;;;12.40;99.90;;;;;;6151866;23;19997;-72
2023/02/17 08:42:25;;;;;;;10.55;7.20;;;12.40;99.90;;;;;;6153309;23;20006;-72
2023/02/17 08:44:50;;;;;;;9.02;6.53;;;12.40;99.90;;;;;;6126045;23;20032;-72
2023/02/17 08:47:16;;;;;;;8.90;6.43;;;12.40;99.90;;;;;;6153221;23;20418;-72
2023/02/17 08:49:42;;;;;;;11.65;7.20;;;12.50;99.90;;;;;;6151308;23;20222;-72
2023/02/17 08:52:07;;;;;;;9.05;6.35;;;12.50;99.90;;;;;;6152574;23;20441;-71
2023/02/17 08:54:33;;;;;;;11.25;7.30;;;12.50;99.90;;;;;;6153087;23;20006;-72
2023/02/17 08:56:59;;;;;;;9.18;6.47;;;12.50;99.90;;;;;;6155449;23;20206;-73
2023/02/17 08:59:24;;;;;;;8.18;5.78;;;12.70;99.90;;;;;;6154564;23;20002;-73
2023/02/17 09:01:50;;;;;;;9.45;6.72;;;12.60;99.90;;;;;;6128604;23;20009;-74
2023/02/17 09:04:16;;;;;;;8.02;6.35;;;12.70;99.90;;;;;;6154572;23;20306;-74
2023/02/17 09:06:45;;;;;;;8.52;6.93;;;12.60;99.90;;;;;;6155797;23;20422;-73
2023/02/17 09:09:14;;;;;;;8.07;5.88;;;12.70;99.90;;;;;;6155643;23;20008;-74
2023/02/17 09:11:40;;;;;;;10.52;6.25;;;12.70;99.90;;;;;;6155758;23;20068;-73
2023/02/17 09:14:07;;;;;;;9.32;6.45;;;12.60;99.90;;;;;;6152381;23;20009;-74
2023/02/17 09:16:32;;;;;;;10.65;5.90;;;12.80;99.90;;;;;;6154962;23;20100;-74
2023/02/17 09:18:58;;;;;;;9.25;6.22;;;12.80;99.90;;;;;;6154928;23;20045;-73
2023/02/17 09:21:24;;;;;;;7.93;5.75;;;12.90;99.90;;;;;;6155150;23;20018;-73
2023/02/17 09:23:52;;;;;;;8.15;5.70;;;12.90;99.90;;;;;;6154166;23;20009;-74
2023/02/17 09:26:18;;;;;;;8.82;5.40;;;13.00;99.90;;;;;;6153123;23;20002;-75
2023/02/17 09:28:44;;;;;;;8.82;5.55;;;13.00;99.90;;;;;;6154878;23;20029;-75
2023/02/17 09:31:13;;;;;;;7.60;5.53;;;13.10;99.90;;;;;;6155088;23;20005;-74
2023/02/17 09:33:43;;;;;;;8.05;5.68;;;13.20;99.90;;;;;;6129373;23;20006;-75
2023/02/17 09:36:11;;;;;;;7.80;5.32;;;13.20;99.90;;;;;;6128671;23;20002;-75
2023/02/17 09:38:38;;;;;;;6.85;5.43;;;13.20;99.90;;;;;;6154625;23;20148;-76
2023/02/17 09:41:25;;;;;;;7.63;5.25;;;13.30;99.90;;;;;;6155611;23;20315;-76
2023/02/17 09:43:52;;;;;;;9.25;5.30;;;13.40;99.90;;;;;;6155225;23;20032;-76
2023/02/17 09:46:23;;;;;;;8.50;5.57;;;13.40;99.90;;;;;;6152660;23;20430;-75
2023/02/17 09:48:49;;;;;;;8.50;5.32;;;13.50;99.90;;;;;;6154335;23;20010;-76
2023/02/17 09:51:15;;;;;;;9.32;5.78;;;13.40;99.90;;;;;;6153101;23;20072;-75
2023/02/17 09:53:50;;;;;;;6.18;4.80;;;13.50;99.90;;;;;;6154099;23;20660;-75
2023/02/17 09:56:24;;;;;;;7.30;4.93;;;13.50;99.90;;;;;;6154947;23;19997;-76
2023/02/17 09:58:54;;;;;;;7.03;5.38;;;13.50;99.90;;;;;;6154435;23;20088;-75
2023/02/17 10:01:31;;;;;;;6.32;4.55;;;13.50;99.90;;;;;;6154565;23;19997;-75
2023/02/17 10:04:13;;;;;;;7.45;4.38;;;13.50;99.90;;;;;;6152965;23;20381;-75
2023/02/17 10:06:45;;;;;;;8.15;4.68;;;13.50;99.90;;;;;;6154355;23;20012;-75
2023/02/17 10:09:11;;;;;;;6.10;4.57;;;13.60;99.90;;;;;;6154658;23;20271;-76
2023/02/17 10:11:39;;;;;;;9.48;4.93;;;13.60;99.90;;;;;;6154249;23;20005;-75
2023/02/17 10:14:16;;;;;;;6.25;4.82;;;13.60;99.90;;;;;;6154615;23;20302;-75
2023/02/17 10:16:50;;;;;;;6.13;4.50;;;13.70;99.90;;;;;;6154928;23;20010;-76
2023/02/17 10:19:28;;;;;;;5.50;5.00;;;13.70;99.90;;;;;;6153034;23;20028;-76
2023/02/17 10:22:11;;;;;;;5.13;4.63;;;13.70;99.90;;;;;;6153392;23;20009;-75
2023/02/17 10:24:37;;;;;;;7.93;5.25;;;13.60;99.90;;;;;;6152987;23;20326;-76
2023/02/17 10:27:21;;;;;;;5.38;4.80;;;13.60;99.90;;;;;;6153596;23;20005;-75
2023/02/17 10:30:08;;;;;;;4.53;4.00;;;13.60;99.90;;;;;;6154504;23;19998;-75
2023/02/17 10:32:59;;;;;;;6.30;4.53;;;13.70;99.90;;;;;;6151170;23;20016;-76
2023/02/17 10:35:49;;;;;;;5.47;4.35;;;13.70;99.90;;;;;;6128603;23;20060;-75
2023/02/17 10:38:24;;;;;;;4.65;4.15;;;13.60;99.90;;;;;;6153410;23;20048;-75
2023/02/17 10:40:51;;;;;;;5.30;4.55;;;13.70;99.90;;;;;;6150683;23;20011;-75
2023/02/17 10:43:23;;;;;;;4.60;3.90;;;13.80;99.90;;;;;;6152477;23;20021;-75
2023/02/17 10:45:50;;;;;;;6.70;4.18;;;13.90;99.90;;;;;;6151375;23;20013;-75
2023/02/17 10:48:25;;;;;;;5.78;3.97;;;14.00;99.90;;;;;;6153667;23;20489;-75
2023/02/17 10:50:54;;;;;;;4.93;3.70;;;14.10;99.90;;;;;;6154116;23;20040;-75
2023/02/17 10:53:23;;;;;;;4.68;3.85;;;14.10;99.90;;;;;;6153350;23;20002;-75
2023/02/17 10:55:53;;;;;;;3.97;3.40;;;14.20;99.90;;;;;;6152426;23;20005;-74
2023/02/17 10:58:24;;;;;;;3.88;3.53;;;14.30;99.90;;;;;;6153738;23;20072;-73
2023/02/17 11:00:55;;;;;;;4.65;3.60;;;14.30;99.90;;;;;;6151590;23;20005;-72
2023/02/17 11:03:24;;;;;;;3.40;3.10;;;14.30;99.90;;;;;;6153513;23;20008;-72
2023/02/17 11:06:05;;;;;;;2.95;2.40;;;14.40;99.90;;;;;;6154140;23;19998;-73
2023/02/17 11:08:43;;;;;;;2.70;2.42;;;14.30;99.90;;;;;;6152334;23;20438;-74
2023/02/17 11:11:29;;;;;;;3.92;2.67;;;14.30;99.90;;;;;;6154197;23;20446;-72
2023/02/17 11:14:06;;;;;;;4.65;2.53;;;14.30;99.90;;;;;;6124599;23;20002;-74
2023/02/17 11:16:37;;;;;;;3.05;2.72;;;14.50;99.90;;;;;;6152166;23;20374;-75
2023/02/17 11:19:05;;;;;;;3.03;2.72;;;14.50;99.90;;;;;;6127620;23;20068;-75
2023/02/17 11:21:34;;;;;;;5.18;3.45;;;14.60;99.90;;;;;;6150663;23;20002;-76
2023/02/17 11:24:05;;;;;;;3.75;3.33;;;14.60;99.90;;;;;;6125101;23;20427;-76
2023/02/17 11:26:33;;;;;;;4.03;2.78;;;14.60;99.90;;;;;;6150948;23;20109;-76
2023/02/17 11:29:16;;;;;;;2.58;2.20;;;14.70;99.90;;;;;;6122752;23;20014;-76
2023/02/17 11:31:56;;;;;;;3.35;2.97;;;14.70;99.90;;;;;;6150130;23;20300;-76
2023/02/17 11:34:26;;;;;;;5.28;3.20;;;14.70;99.90;;;;;;6151590;23;20006;-77
2023/02/17 11:37:03;;;;;;;4.30;2.22;;;14.70;99.90;;;;;;6124455;23;20021;-76
2023/02/17 11:39:28;;;;;;;3.05;2.13;;;14.80;99.90;;;;;;6148718;23;20006;-75
2023/02/17 11:41:54;;;;;;;3.45;2.55;;;14.80;99.90;;;;;;6151939;23;20028;-76
2023/02/17 11:44:27;;;;;;;2.05;1.90;;;14.90;99.90;;;;;;6125034;23;20048;-75
2023/02/17 11:47:15;;;;;;;2.17;1.40;;;14.90;99.90;;;;;;6124921;23;20045;-75
2023/02/17 11:50:05;;;;;;;1.27;1.00;;;14.90;99.90;;;;;;6150605;23;20001;-75
2023/02/17 11:52:49;;;;;;;3.08;1.10;;;14.90;99.90;;;;;;6151348;23;20342;-75
2023/02/17 11:55:17;;;;;;;1.25;1.15;;;15.10;99.90;;;;;;6151889;23;20029;-76
2023/02/17 11:58:00;;;;;;;1.60;1.35;;;15.20;99.90;;;;;;6150828;23;20009;-76
2023/02/17 12:00:53;;;;;;;2.72;1.42;;;15.20;99.90;;;;;;6150491;23;20326;-75
2023/02/17 12:04:02;;;;;;;5.65;1.60;;;15.30;99.90;;;;;;6152031;23;20005;-75
2023/02/17 12:06:47;;;;;;;3.28;1.20;;;15.50;99.90;;;;;;6152425;23;20423;-75
2023/02/17 12:09:28;;;;;;;4.13;1.42;;;15.50;99.90;;;;;;6149535;23;20430;-76
2023/02/17 12:11:59;;;;;;;4.05;1.13;;;15.50;99.90;;;;;;6124469;23;20095;-75
2023/02/17 12:14:33;;;;;;;2.13;1.10;;;15.50;99.90;;;;;;6150491;23;20077;-75
2023/02/17 12:17:07;;;;;;;3.10;1.48;;;15.40;99.90;;;;;;6125564;23;20101;-75
2023/02/17 12:19:45;;;;;;;2.83;1.23;;;15.40;99.90;;;;;;6148749;23;20001;-76
2023/02/17 12:22:50;;;;;;;2.25;0.95;;;15.30;99.90;;;;;;6124132;23;20338;-76
2023/02/17 12:25:23;;;;;;;8.75;1.05;;;15.30;99.90;;;;;;6105681;23;20051;-76
2023/02/17 12:28:03;;;;;;;2.75;0.88;;;15.20;99.90;;;;;;6153137;23;20017;-76
2023/02/17 12:30:53;;;;;;;2.60;0.65;;;15.30;99.90;;;;;;6153674;23;20009;-76
2023/02/17 12:33:55;;;;;;;2.80;0.70;;;15.30;99.90;;;;;;6152214;23;20520;-76
2023/02/17 12:36:28;;;;;;;4.25;1.38;;;15.40;99.90;;;;;;6150690;23;20005;-75
2023/02/17 12:38:59;;;;;;;1.10;0.70;;;15.40;99.90;;;;;;6151346;23;20013;-76
2023/02/17 12:41:33;;;;;;;3.30;1.08;;;15.50;99.90;;;;;;6153163;23;20109;-76
2023/02/17 12:44:31;;;;;;;2.53;0.85;;;15.40;99.90;;;;;;6153447;23;20020;-76
2023/02/17 12:47:02;;;;;;;4.35;1.58;;;15.50;99.90;;;;;;6132094;23;20118;-75
2023/02/17 12:49:41;;;;;;;1.63;1.40;;;15.40;99.90;;;;;;6126250;23;20334;-75
2023/02/17 12:52:26;;;;;;;1.20;1.10;;;15.50;99.90;;;;;;6152751;23;20002;-76
2023/02/17 12:54:57;;;;;;;1.30;1.20;;;15.40;99.90;;;;;;6152626;23;20382;-75
2023/02/17 12:57:35;;;;;;;1.02;0.82;;;15.30;99.90;;;;;;6152274;23;20006;-74